Arbon, Idaho
Current Conditions -  °F | °C
As of 12:53 AM on Monday 22 Dec 2014 (Local Time) from KPIH Reporting Station
Overcast Overcast  
Wind Chill: 24°   Ceiling: 900
Heat Index: 36°   Visibility: 10mi
Dew Point: 34°   Wind: 23mph
Humidity: 93%   Direction: 240°WSW
Pressure: 29.99"   Gusts: 28mph
Location:  42.46°N, 112.57°W
Report Text: KPIH 220753Z AUTO 24020G24KT 10SM OVC009 02/01 A2999 RMK AO2 CIG 008V013 SLP153 T00220011
Loading
Personal Weather Stations






























Interactive Weather Map New forecast layout! Learn more

10-Day Weather Forecast

Advertisements
Track Severe Weather on mobile